Climatologie pour Saint-Brevin les Pins
Jour • Résumé pour mai 17, 2017 Système :  Métrique    Anglais   Mixte
« - 1 jour
+ 1 jour »
Jour Semaine Mois Année Personnalisé
  Maximum : Minimum : Moyenne :
Température sous abri : -17.8 °C -10.3 °C -8.9 °C
Point de rosée : -17.8 °C -10.7 °C -9.6 °C
Humidité : Humidity % 75 % 93 %
Vitesse du vent : 0 km/h 0 km/h 5 km/h
Rafale : 0 km/h - -
Direction :- - West
Pression : 0 hPa 34361.1 hPa -
Précipitations : 129.54 mm    
Historical Graphs
 
 
Tableau de données pour mai 17, 2017
Heure Tempé Pt rosée Pression Vent Vitesse Rafale Humidité Taux pluie (/hr) Soleil
-17.8 °C -17.8 °C 0 hPa Calm     Humidity % 0 mm SolarRadiationWatts/m^2 W/m2 Conditions
00:00 -9.1 °C -10.1 °C 34611.7 hPa Calm     89 % 0 mm 0 W/m2
00:05 -9.1 °C -10.1 °C 34611.7 hPa Calm     89 % 0 mm 0 W/m2
00:15 -9.2 °C -10.1 °C 34601.5 hPa Calm   2.6 km/h 90 % 0 mm 0 W/m2
00:20 -9.2 °C -10.1 °C 34601.5 hPa Calm     90 % 0 mm 0 W/m2
00:25 -9.3 °C -10.2 °C 34601.5 hPa Calm     90 % 0 mm 0 W/m2
00:30 -9.3 °C -10.1 °C 34601.5 hPa Calm     91 % 0 mm 0 W/m2
00:35 -9.2 °C -10.1 °C 34601.5 hPa Calm     91 % 0 mm 0 W/m2
00:40 -9.3 °C -10.1 °C 34601.5 hPa Calm     91 % 0 mm 0 W/m2
00:45 -9.4 °C -10.2 °C 34601.5 hPa Calm     91 % 0 mm 0 W/m2
00:50 -9.5 °C -10.2 °C 34601.5 hPa Calm     92 % 0 mm 0 W/m2
00:55 -9.5 °C -10.2 °C 34601.5 hPa Calm     92 % 0 mm 0 W/m2
01:00 -9.5 °C -10.1 °C 34601.5 hPa Calm     93 % 0 mm 0 W/m2
01:05 -9.5 °C -10.1 °C 34601.5 hPa Calm     93 % 0 mm 0 W/m2
01:10 -9.5 °C -10.1 °C 34601.5 hPa Calm     93 % 0 mm 0 W/m2
01:15 -9.6 °C -10.2 °C 34601.5 hPa Calm   2.6 km/h 93 % 0 mm 0 W/m2
01:20 -9.6 °C -10.2 °C 34601.5 hPa Calm   2.6 km/h 93 % 0 mm 0 W/m2
01:25 -9.6 °C -10.2 °C 34591.4 hPa Calm   2.6 km/h 93 % 0 mm 0 W/m2
01:30 -9.6 °C -10.1 °C 34591.4 hPa Calm     94 % 0 mm 0 W/m2
01:35 -9.5 °C -10.1 °C 34591.4 hPa Calm     94 % 0 mm 0 W/m2
01:40 -9.5 °C -10 °C 34591.4 hPa Calm     94 % 0 mm 0 W/m2
01:45 -9.5 °C -10 °C 34591.4 hPa Calm     94 % 0 mm 0 W/m2
01:50 -9.5 °C -10.1 °C 34577.8 hPa Calm     93 % 0 mm 0 W/m2
01:55 -9.5 °C -10.1 °C 34577.8 hPa Calm     93 % 0 mm 0 W/m2
02:00 -9.5 °C -10.1 °C 34577.8 hPa Calm     94 % 0 mm 0 W/m2
02:05 -9.6 °C -10.1 °C 34577.8 hPa Calm     94 % 0 mm 0 W/m2
02:10 -9.6 °C -10.1 °C 34577.8 hPa Calm     94 % 0 mm 0 W/m2
02:15 -9.6 °C -10.1 °C 34567.7 hPa Calm     94 % 0 mm 0 W/m2
02:20 -9.6 °C -10.1 °C 34567.7 hPa Calm     94 % 0 mm 0 W/m2
02:25 -9.5 °C -10 °C 34567.7 hPa Calm     94 % 0 mm 0 W/m2
02:30 -9.4 °C -10.1 °C 34567.7 hPa Calm     93 % 0 mm 0 W/m2
02:35 -9.5 °C -10.2 °C 34554.1 hPa Calm     92 % 0 mm 0 W/m2
02:40 -9.6 °C -10.2 °C 34554.1 hPa Calm     93 % 0 mm 0 W/m2
02:45 -9.7 °C -10.3 °C 34554.1 hPa Calm     93 % 0 mm 0 W/m2
02:50 -9.8 °C -10.4 °C 34554.1 hPa Calm   2.6 km/h 93 % 0 mm 0 W/m2
02:55 -9.9 °C -10.6 °C 34554.1 hPa Calm   2.6 km/h 93 % 0 mm 0 W/m2
03:00 -9.9 °C -10.5 °C 34554.1 hPa Calm     94 % 0 mm 0 W/m2
03:05 -9.9 °C -10.4 °C 34554.1 hPa Calm   2.6 km/h 94 % 0 mm 0 W/m2
03:10 -9.9 °C -10.4 °C 34554.1 hPa Calm   2.6 km/h 94 % 0 mm 0 W/m2
03:15 -9.9 °C -10.5 °C 34554.1 hPa Calm     94 % 0 mm 0 W/m2
03:20 -9.9 °C -10.5 °C 34544 hPa Calm     94 % 0 mm 0 W/m2
03:25 -9.9 °C -10.3 °C 34544 hPa Calm     95 % 0 mm 0 W/m2
03:30 -9.8 °C -10.3 °C 34544 hPa Calm   2.6 km/h 95 % 0 mm 0 W/m2
03:35 -9.8 °C -10.3 °C 34544 hPa Calm   2.6 km/h 95 % 0 mm 0 W/m2
03:40 -9.9 °C -10.3 °C 34533.8 hPa Calm     95 % 0 mm 0 W/m2
03:45 -9.9 °C -10.4 °C 34533.8 hPa Calm     94 % 0 mm 0 W/m2
03:50 -9.8 °C -10.3 °C 34533.8 hPa Calm     95 % 0 mm 0 W/m2
03:55 -9.7 °C -10.1 °C 34533.8 hPa Calm     95 % 0 mm 0 W/m2
04:00 -9.7 °C -10.2 °C 34520.3 hPa Calm     94 % 0 mm 0 W/m2
04:05 -9.8 °C -10.4 °C 34520.3 hPa Calm     93 % 0 mm 0 W/m2
04:10 -9.8 °C -10.4 °C 34520.3 hPa Calm     94 % 0 mm 0 W/m2
04:15 -9.9 °C -10.4 °C 34520.3 hPa Calm     94 % 0 mm 0 W/m2
04:20 -10 °C -10.6 °C 34520.3 hPa Calm     94 % 0 mm 0 W/m2
04:25 -10.1 °C -10.5 °C 34510.1 hPa Calm     95 % 0 mm 0 W/m2
04:30 -9.9 °C -10.4 °C 34510.1 hPa Calm   2.6 km/h 95 % 0 mm 0 W/m2
04:35 -9.9 °C -10.3 °C 34510.1 hPa Calm   2.6 km/h 95 % 0 mm 0 W/m2
04:40 -9.8 °C -10.3 °C 34510.1 hPa Calm   2.6 km/h 95 % 0 mm 0 W/m2
04:45 -9.8 °C -10.4 °C 34496.6 hPa Calm   2.6 km/h 94 % 0 mm 0 W/m2
04:50 -9.8 °C -10.4 °C 34496.6 hPa Calm   2.6 km/h 94 % 0 mm 0 W/m2
04:55 -9.9 °C -10.3 °C 34496.6 hPa Calm     95 % 0 mm 0 W/m2
05:00 -9.9 °C -10.4 °C 34496.6 hPa Calm     94 % 0 mm 0 W/m2
05:05 -10 °C -10.6 °C 34496.6 hPa Calm     94 % 0 mm 0 W/m2
05:10 -10.1 °C -10.7 °C 34496.6 hPa Calm   2.6 km/h 94 % 0 mm 0 W/m2
05:15 -10.2 °C -10.6 °C 34496.6 hPa Calm   2.6 km/h 95 % 0 mm 0 W/m2
05:20 -10.3 °C -10.7 °C 34496.6 hPa Calm     95 % 0 mm 0 W/m2
05:25 -10.2 °C -10.7 °C 34496.6 hPa Calm     95 % 0 mm 0 W/m2
05:30 -10.2 °C -10.7 °C 34496.6 hPa Calm     95 % 0 mm 0 W/m2
05:35 -10.3 °C -10.7 °C 34486.4 hPa Calm     95 % 0 mm 0 W/m2
05:40 -10.3 °C -10.7 °C 34486.4 hPa Calm     95 % 0 mm 0 W/m2
05:45 -10.3 °C -10.6 °C 34486.4 hPa Calm     96 % 0 mm 0 W/m2
05:50 -10.3 °C -10.6 °C 34486.4 hPa Calm   2.6 km/h 96 % 0 mm 0 W/m2
05:55 -10.3 °C -10.7 °C 34486.4 hPa Calm   2.6 km/h 96 % 0 mm 0 W/m2
06:00 -10.3 °C -10.6 °C 34486.4 hPa Calm   2.6 km/h 96 % 0 mm 0 W/m2
06:05 -10.2 °C -10.6 °C 34486.4 hPa Calm     96 % 0 mm 0 W/m2
06:10 -10.2 °C -10.5 °C 34486.4 hPa Calm     96 % 0 mm 0 W/m2
06:15 -10.2 °C -10.6 °C 34486.4 hPa Calm     96 % 0 mm 0 W/m2
06:20 -10.2 °C -10.6 °C 34486.4 hPa Calm     96 % 0 mm 0 W/m2
06:25 -10.2 °C -10.6 °C 34476.3 hPa Calm     96 % 0 mm 0 W/m2
06:30 -10.2 °C -10.5 °C 34476.3 hPa Calm     96 % 0 mm 0 W/m2
06:35 -10.2 °C -10.5 °C 34476.3 hPa Calm     96 % 0 mm 5 W/m2
06:40 -10.2 °C -10.5 °C 34476.3 hPa Calm     96 % 0 mm 11 W/m2
06:45 -10.1 °C -10.3 °C 34462.7 hPa Calm     97 % 0 mm 14 W/m2
06:50 -10.1 °C -10.4 °C 34462.7 hPa Calm     96 % 0 mm 19 W/m2
06:55 -9.9 °C -10.3 °C 34462.7 hPa Calm     96 % 0 mm 21 W/m2
07:00 -9.9 °C -10.2 °C 34462.7 hPa Calm   2.6 km/h 97 % 0 mm 25 W/m2
07:05 -9.8 °C -10.2 °C 34462.7 hPa Calm   2.6 km/h 96 % 0 mm 28 W/m2
07:10 -9.8 °C -10.2 °C 34462.7 hPa Calm     96 % 0 mm 33 W/m2
07:15 -9.8 °C -10.1 °C 34462.7 hPa Calm     96 % 0 mm 40 W/m2
07:20 -9.6 °C -9.8 °C 34462.7 hPa Calm   2.6 km/h 97 % 0 mm 51 W/m2
07:25 -9.6 °C -9.9 °C 34462.7 hPa Calm   2.6 km/h 96 % 0 mm 53 W/m2
07:30 -9.6 °C -9.9 °C 34462.7 hPa Calm   7.7 km/h 96 % 0 mm 60 W/m2
07:35 -9.4 °C -9.8 °C 34462.7 hPa Calm   7.7 km/h 96 % 0 mm 74 W/m2
07:40 -9.3 °C -9.7 °C 34452.6 hPa Calm     96 % 0 mm 83 W/m2
07:45 -9.1 °C -9.5 °C 34452.6 hPa Calm     96 % 0 mm 93 W/m2
07:50 -9 °C -9.3 °C 34452.6 hPa Calm   2.6 km/h 96 % 0 mm 104 W/m2
08:00 -8.4 °C -8.8 °C 34452.6 hPa WNW 5.1 km/h 10.3 km/h 96 % 0 mm 128 W/m2
08:05 -8.3 °C -8.7 °C 34452.6 hPa NW 7.7 km/h 10.3 km/h 95 % 0 mm 118 W/m2
08:10 -8.2 °C -8.8 °C 34452.6 hPa Calm   10.3 km/h 94 % 0 mm 104 W/m2
08:15 -8.2 °C -8.8 °C 34452.6 hPa NW 2.6 km/h 10.3 km/h 94 % 0 mm 98 W/m2
08:20 -8.3 °C -8.9 °C 34442.4 hPa Calm   5.1 km/h 93 % 0 mm 84 W/m2
08:25 -8.4 °C -9 °C 34452.6 hPa Calm   2.6 km/h 93 % 0 mm 97 W/m2
08:30 -8.3 °C -9.1 °C 34452.6 hPa Calm   2.6 km/h 92 % 0 mm 109 W/m2
08:40 -8.2 °C -8.9 °C 34452.6 hPa WNW 7.7 km/h 10.3 km/h 92 % 0 mm 148 W/m2
08:45 -8.1 °C -9.1 °C 34452.6 hPa West 5.1 km/h 10.3 km/h 90 % 0 mm 195 W/m2
08:50 -7.9 °C -8.9 °C 34452.6 hPa Calm   10.3 km/h 90 % 0 mm 134 W/m2
08:55 -7.9 °C -8.9 °C 34452.6 hPa Calm   7.7 km/h 90 % 0 mm 142 W/m2
09:00 -7.9 °C -8.8 °C 34452.6 hPa Calm   7.7 km/h 90 % 0 mm 211 W/m2
09:05 -7.8 °C -8.7 °C 34442.4 hPa West 2.6 km/h 5.1 km/h 90 % 0 mm 255 W/m2
09:10 -7.6 °C -8.6 °C 34442.4 hPa Calm   7.7 km/h 89 % 0 mm 213 W/m2
09:15 -7.3 °C -8.3 °C 34442.4 hPa Calm   10.3 km/h 90 % 0 mm 369 W/m2
09:20 -7.2 °C -8.4 °C 34442.4 hPa NNW 7.7 km/h 10.3 km/h 87 % 0 mm 264 W/m2
09:25 -7 °C -8.5 °C 34428.8 hPa NW 10.3 km/h 12.9 km/h 84 % 0 mm 540 W/m2
09:30 -6.7 °C -8.4 °C 34428.8 hPa NNE 5.1 km/h 12.9 km/h 82 % 0 mm 469 W/m2
09:35 -6.4 °C -8.1 °C 34428.8 hPa Calm   12.9 km/h 83 % 0 mm 480 W/m2
09:40 -6.4 °C -8.1 °C 34428.8 hPa WNW 2.6 km/h 12.9 km/h 83 % 0 mm 452 W/m2
09:45 -6.3 °C -8.2 °C 34428.8 hPa WNW 2.6 km/h 12.9 km/h 81 % 0 mm 464 W/m2
09:50 -6.3 °C -8.1 °C 34428.8 hPa WNW 7.7 km/h 12.9 km/h 82 % 0 mm 526 W/m2
09:55 -6.3 °C -8.3 °C 34428.8 hPa Calm   15.6 km/h 80 % 0 mm 387 W/m2
10:00 -6.3 °C -8.3 °C 34428.8 hPa WNW 7.7 km/h 15.6 km/h 80 % 0 mm 501 W/m2
10:05 -6.2 °C -8.1 °C 34418.7 hPa North 7.7 km/h 15.6 km/h 81 % 0 mm 566 W/m2
10:10 -6.1 °C -7.9 °C 34418.7 hPa North 7.7 km/h 10.3 km/h 81 % 0 mm 295 W/m2
10:20 -6.1 °C -7.9 °C 34418.7 hPa WNW 7.7 km/h 15.6 km/h 81 % 0 mm 323 W/m2
10:25 -6.1 °C -7.9 °C 34418.7 hPa NW 5.1 km/h 15.6 km/h 81 % 0 mm 345 W/m2
10:30 -6.1 °C -7.9 °C 34418.7 hPa WNW 10.3 km/h 15.6 km/h 81 % 0 mm 323 W/m2
10:35 -6.2 °C -8.1 °C 34418.7 hPa Calm   15.6 km/h 81 % 0 mm 236 W/m2
10:40 -6.3 °C -8 °C 34405.1 hPa Calm   15.6 km/h 83 % 0 mm 292 W/m2
10:45 -6.2 °C -7.9 °C 34405.1 hPa WNW 10.3 km/h 15.6 km/h 83 % 0 mm 294 W/m2
10:50 -6.3 °C -8.2 °C 34405.1 hPa NW 10.3 km/h 20.8 km/h 81 % 0 mm 241 W/m2
10:55 -6.3 °C -8.2 °C 34405.1 hPa WNW 10.3 km/h 25.9 km/h 81 % 0 mm 213 W/m2
11:00 -6.4 °C -8.6 °C 34405.1 hPa Calm   25.9 km/h 79 % 0 mm 162 W/m2
11:05 -6.6 °C -8.4 °C 34405.1 hPa NW 5.1 km/h 18.2 km/h 81 % 0 mm 139 W/m2
11:10 -6.7 °C -8.6 °C 34405.1 hPa WNW 7.7 km/h 20.8 km/h 81 % 0 mm 141 W/m2
11:15 -6.7 °C -8.5 °C 34395 hPa North 10.3 km/h 20.8 km/h 82 % 0 mm 199 W/m2
11:20 -6.7 °C -8.7 °C 34395 hPa NW 7.7 km/h 20.8 km/h 80 % 0 mm 246 W/m2
11:25 -6.6 °C -8.7 °C 34405.1 hPa West 10.3 km/h 25.9 km/h 79 % 0 mm 220 W/m2
11:30 -6.6 °C -8.7 °C 34405.1 hPa WNW 7.7 km/h 25.9 km/h 79 % 0 mm 216 W/m2
11:35 -6.6 °C -8.8 °C 34405.1 hPa WNW 7.7 km/h 18.2 km/h 78 % 0 mm 265 W/m2
11:40 -6.5 °C -8.6 °C 34405.1 hPa NW 10.3 km/h 20.8 km/h 79 % 0 mm 313 W/m2
11:45 -6.4 °C -8.9 °C 34405.1 hPa NW 5.1 km/h 25.9 km/h 76 % 0 mm 202 W/m2
11:50 -6.7 °C -9.2 °C 34405.1 hPa WNW 10.3 km/h 25.9 km/h 75 % 0 mm 204 W/m2
11:55 -6.7 °C -9 °C 34405.1 hPa NNW 18.2 km/h 23.3 km/h 77 % 0 mm 257 W/m2
12:00 -6.7 °C -8.8 °C 34405.1 hPa West 25.9 km/h 33.6 km/h 79 % 0 mm 202 W/m2
12:05 -6.9 °C -8.8 °C 34405.1 hPa NW 18.2 km/h 33.6 km/h 80 % 0 mm 111 W/m2
12:10 -7.2 °C -9.1 °C 34418.7 hPa WNW 7.7 km/h 31.1 km/h 80 % 0 mm 200 W/m2
12:15 -7.2 °C -9.2 °C 34405.1 hPa WNW 20.8 km/h 31.1 km/h 80 % 0 mm 202 W/m2
12:20 -7.3 °C -9.2 °C 34418.7 hPa WNW 7.7 km/h 36.2 km/h 80 % 0 mm 171 W/m2
12:25 -7.3 °C -9.3 °C 34428.8 hPa WNW 7.7 km/h 38.8 km/h 80 % 0 mm 79 W/m2
12:30 -7.6 °C -9.4 °C 34428.8 hPa WNW 10.3 km/h 38.8 km/h 81 % 0 mm 84 W/m2
12:35 -7.7 °C -9.4 °C 34428.8 hPa WNW 25.9 km/h 44.1 km/h 82 % 0 mm 76 W/m2
12:40 -7.9 °C -9.5 °C 34428.8 hPa WNW 15.6 km/h 44.1 km/h 83 % 0 mm 84 W/m2
12:45 -8 °C -9.4 °C 34428.8 hPa West 12.9 km/h 38.8 km/h 85 % 0 mm 56 W/m2
12:50 -8.1 °C -9.6 °C 34428.8 hPa NW 7.7 km/h 36.2 km/h 85 % 0 mm 51 W/m2
12:55 -8.2 °C -9.5 °C 34428.8 hPa North 15.6 km/h 36.2 km/h 86 % 0 mm 51 W/m2
13:00 -8.2 °C -9.4 °C 34428.8 hPa NNW 18.2 km/h 28.5 km/h 87 % 0 mm 46 W/m2
13:05 -8.3 °C -9.4 °C 34428.8 hPa WNW 7.7 km/h 25.9 km/h 88 % 0 mm 47 W/m2
13:10 -8.4 °C -9.5 °C 34428.8 hPa NNW 15.6 km/h 25.9 km/h 88 % 0 mm 77 W/m2
13:15 -8.4 °C -9.4 °C 34418.7 hPa NW 20.8 km/h 33.6 km/h 89 % 0 mm 114 W/m2
13:20 -8.4 °C -9.3 °C 34418.7 hPa NNE 15.6 km/h 33.6 km/h 90 % 0 mm 83 W/m2
13:25 -8.5 °C -9.3 °C 34428.8 hPa WNW 10.3 km/h 25.9 km/h 91 % 7.62 mm 125 W/m2
13:30 -8.6 °C -9.3 °C 34428.8 hPa NW 7.7 km/h 28.5 km/h 92 % 7.62 mm 118 W/m2
13:35 -8.6 °C -9.3 °C 34428.8 hPa NW 10.3 km/h 28.5 km/h 92 % 7.62 mm 97 W/m2
13:40 -8.7 °C -9.3 °C 34428.8 hPa WNW 7.7 km/h 25.9 km/h 93 % 12.7 mm 88 W/m2
13:45 -8.6 °C -9.2 °C 34418.7 hPa WNW 7.7 km/h 23.3 km/h 93 % 12.7 mm 144 W/m2
13:50 -8.6 °C -9.2 °C 34418.7 hPa NNW 5.1 km/h 23.3 km/h 94 % 12.7 mm 98 W/m2
13:55 -8.6 °C -9.1 °C 34418.7 hPa NW 5.1 km/h 18.2 km/h 94 % 12.7 mm 88 W/m2
14:00 -8.6 °C -9.1 °C 34405.1 hPa NW 7.7 km/h 18.2 km/h 94 % 20.32 mm 67 W/m2
14:05 -8.7 °C -9.1 °C 34418.7 hPa NNW 5.1 km/h 18.2 km/h 95 % 25.4 mm 60 W/m2
14:10 -8.7 °C -9.2 °C 34418.7 hPa Calm   15.6 km/h 95 % 38.1 mm 84 W/m2
14:15 -8.7 °C -9.2 °C 34418.7 hPa Calm   12.9 km/h 95 % 45.72 mm 120 W/m2
14:20 -8.7 °C -9.2 °C 34418.7 hPa NW 2.6 km/h 15.6 km/h 95 % 45.72 mm 113 W/m2
14:25 -8.7 °C -9.1 °C 34405.1 hPa NW 2.6 km/h 18.2 km/h 96 % 45.72 mm 181 W/m2
14:30 -8.7 °C -9.1 °C 34405.1 hPa Calm   18.2 km/h 96 % 50.8 mm 146 W/m2
14:35 -8.6 °C -8.9 °C 34395 hPa NW 7.7 km/h 15.6 km/h 96 % 50.8 mm 172 W/m2
14:40 -8.7 °C -9.1 °C 34405.1 hPa NNW 5.1 km/h 10.3 km/h 96 % 45.72 mm 116 W/m2
14:45 -8.7 °C -9 °C 34395 hPa Calm   10.3 km/h 96 % 45.72 mm 137 W/m2
14:50 -8.7 °C -9 °C 34395 hPa Calm   7.7 km/h 96 % 45.72 mm 95 W/m2
14:55 -8.6 °C -8.9 °C 34395 hPa Calm   7.7 km/h 96 % 38.1 mm 81 W/m2
15:00 -8.6 °C -8.9 °C 34395 hPa Calm   5.1 km/h 96 % 38.1 mm 60 W/m2
15:05 -8.6 °C -8.9 °C 34395 hPa Calm   5.1 km/h 96 % 38.1 mm 62 W/m2
15:10 -8.7 °C -9 °C 34395 hPa Calm     96 % 25.4 mm 90 W/m2
15:15 -8.6 °C -8.9 °C 34395 hPa Calm   2.6 km/h 96 % 12.7 mm 93 W/m2
15:20 -8.7 °C -9.1 °C 34395 hPa Calm   2.6 km/h 96 % 20.32 mm 111 W/m2
15:25 -8.7 °C -9 °C 34395 hPa NNW 2.6 km/h 5.1 km/h 96 % 12.7 mm 109 W/m2
15:30 -8.7 °C -9 °C 34395 hPa NNW 5.1 km/h 10.3 km/h 96 % 12.7 mm 100 W/m2
15:35 -8.7 °C -9.1 °C 34395 hPa Calm   10.3 km/h 96 % 12.7 mm 105 W/m2
15:40 -8.7 °C -9 °C 34395 hPa NNW 2.6 km/h 7.7 km/h 96 % 12.7 mm 111 W/m2
15:45 -8.7 °C -9.1 °C 34395 hPa NNW 2.6 km/h 7.7 km/h 96 % 12.7 mm 107 W/m2
15:55 -8.7 °C -9 °C 34395 hPa West 5.1 km/h 12.9 km/h 96 % 12.7 mm 104 W/m2
16:00 -8.7 °C -9.1 °C 34395 hPa West 5.1 km/h 12.9 km/h 96 % 12.7 mm 116 W/m2
16:05 -8.7 °C -9.1 °C 34395 hPa Calm   10.3 km/h 96 % 12.7 mm 141 W/m2
16:10 -8.7 °C -9.1 °C 34395 hPa Calm   10.3 km/h 96 % 12.7 mm 135 W/m2
16:15 -8.7 °C -9 °C 34384.8 hPa West 2.6 km/h 7.7 km/h 96 % 12.7 mm 149 W/m2
16:20 -8.7 °C -9 °C 34384.8 hPa West 10.3 km/h 10.3 km/h 96 % 12.7 mm 165 W/m2
16:30 -8.6 °C -8.9 °C 34395 hPa West 5.1 km/h 12.9 km/h 96 % 12.7 mm 165 W/m2
16:35 -8.6 °C -8.9 °C 34384.8 hPa WSW 12.9 km/h 12.9 km/h 96 % 12.7 mm 179 W/m2
16:40 -8.6 °C -8.9 °C 34384.8 hPa WSW 7.7 km/h 12.9 km/h 96 % 12.7 mm 135 W/m2
16:45 -8.7 °C -9.1 °C 34384.8 hPa WSW 5.1 km/h 18.2 km/h 96 % 12.7 mm 141 W/m2
16:50 -8.7 °C -9.1 °C 34384.8 hPa WSW 2.6 km/h 20.8 km/h 96 % 12.7 mm 139 W/m2
16:55 -8.7 °C -9.1 °C 34384.8 hPa West 10.3 km/h 20.8 km/h 96 % 12.7 mm 118 W/m2
17:00 -8.7 °C -9.1 °C 34384.8 hPa WNW 5.1 km/h 23.3 km/h 96 % 12.7 mm 81 W/m2
17:05 -8.8 °C -9.1 °C 34384.8 hPa WSW 10.3 km/h 23.3 km/h 96 % 12.7 mm 90 W/m2
17:10 -8.8 °C -9.2 °C 34384.8 hPa West 12.9 km/h 20.8 km/h 96 % 12.7 mm 77 W/m2
17:15 -8.9 °C -9.2 °C 34384.8 hPa West 10.3 km/h 20.8 km/h 96 % 12.7 mm 70 W/m2
17:20 -8.9 °C -9.3 °C 34384.8 hPa West 5.1 km/h 20.8 km/h 96 % 12.7 mm 178 W/m2
17:25 -8.8 °C -9.1 °C 34384.8 hPa WNW 15.6 km/h 20.8 km/h 97 % 12.7 mm 190 W/m2
17:30 -8.8 °C -9.1 °C 34384.8 hPa West 12.9 km/h 20.8 km/h 97 % 12.7 mm 179 W/m2
17:40 -9 °C -9.3 °C 34384.8 hPa WSW 5.1 km/h 18.2 km/h 96 % 7.62 mm 160 W/m2
17:45 -9.1 °C -9.4 °C 34384.8 hPa WSW 10.3 km/h 20.8 km/h 96 % 12.7 mm 125 W/m2
17:50 -9.1 °C -9.5 °C 34384.8 hPa WNW 12.9 km/h 20.8 km/h 96 % 12.7 mm 121 W/m2
17:55 -9.1 °C -9.4 °C 34384.8 hPa WNW 5.1 km/h 18.2 km/h 96 % 12.7 mm 135 W/m2
18:00 -9.2 °C -9.5 °C 34371.3 hPa West 12.9 km/h 18.2 km/h 96 % 12.7 mm 171 W/m2
18:05 -9.1 °C -9.4 °C 34384.8 hPa WNW 15.6 km/h 20.8 km/h 96 % 12.7 mm 121 W/m2
18:10 -9.1 °C -9.4 °C 34384.8 hPa WNW 5.1 km/h 20.8 km/h 96 % 12.7 mm 105 W/m2
18:15 -9.1 °C -9.4 °C 34384.8 hPa WNW 5.1 km/h 20.8 km/h 96 % 7.62 mm 84 W/m2
18:20 -9.1 °C -9.4 °C 34384.8 hPa WNW 12.9 km/h 20.8 km/h 96 % 7.62 mm 63 W/m2
18:25 -9.1 °C -9.5 °C 34384.8 hPa WNW 5.1 km/h 18.2 km/h 96 % 7.62 mm 53 W/m2
18:30 -9.2 °C -9.6 °C 34384.8 hPa WSW 7.7 km/h 20.8 km/h 96 % 7.62 mm 51 W/m2
18:35 -9.2 °C -9.6 °C 34384.8 hPa West 2.6 km/h 20.8 km/h 96 % 7.62 mm 86 W/m2
18:40 -9.2 °C -9.6 °C 34384.8 hPa West 12.9 km/h 23.3 km/h 96 % 12.7 mm 105 W/m2
18:45 -9.2 °C -9.6 °C 34384.8 hPa WSW 7.7 km/h 23.3 km/h 96 % 7.62 mm 84 W/m2
18:50 -9.3 °C -9.6 °C 34384.8 hPa West 12.9 km/h 20.8 km/h 96 % 7.62 mm 84 W/m2
18:55 -9.3 °C -9.6 °C 34384.8 hPa WSW 7.7 km/h 28.5 km/h 96 % 7.62 mm 109 W/m2
19:00 -9.3 °C -9.6 °C 34384.8 hPa West 7.7 km/h 28.5 km/h 96 % 7.62 mm 93 W/m2
19:05 -9.3 °C -9.5 °C 34384.8 hPa WSW 12.9 km/h 18.2 km/h 97 % 12.7 mm 69 W/m2
19:10 -9.2 °C -9.4 °C 34384.8 hPa West 10.3 km/h 18.2 km/h 97 % 12.7 mm 67 W/m2
19:15 -9.2 °C -9.6 °C 34384.8 hPa WSW 12.9 km/h 18.2 km/h 96 % 12.7 mm 56 W/m2
19:20 -9.3 °C -9.7 °C 34384.8 hPa WSW 10.3 km/h 20.8 km/h 96 % 12.7 mm 60 W/m2
19:25 -9.3 °C -9.6 °C 34384.8 hPa West 7.7 km/h 20.8 km/h 97 % 12.7 mm 51 W/m2
19:30 -9.3 °C -9.6 °C 34371.3 hPa WSW 2.6 km/h 18.2 km/h 97 % 12.7 mm 40 W/m2
19:35 -9.4 °C -9.7 °C 34371.3 hPa Calm   18.2 km/h 96 % 12.7 mm 26 W/m2
19:40 -9.4 °C -9.7 °C 34371.3 hPa WSW 12.9 km/h 20.8 km/h 97 % 7.62 mm 54 W/m2
19:45 -9.3 °C -9.6 °C 34371.3 hPa Calm   20.8 km/h 97 % 7.62 mm 63 W/m2
19:50 -9.3 °C -9.6 °C 34371.3 hPa Calm   18.2 km/h 97 % 7.62 mm 42 W/m2
19:55 -9.3 °C -9.6 °C 34371.3 hPa WSW 7.7 km/h 18.2 km/h 97 % 7.62 mm 40 W/m2
20:00 -9.3 °C -9.6 °C 34371.3 hPa SW 10.3 km/h 18.2 km/h 97 % 7.62 mm 25 W/m2
20:05 -9.3 °C -9.6 °C 34371.3 hPa WSW 7.7 km/h 20.8 km/h 97 % 7.62 mm 23 W/m2
20:10 -9.4 °C -9.7 °C 34371.3 hPa WSW 7.7 km/h 23.3 km/h 97 % 7.62 mm 12 W/m2
20:15 -9.4 °C -9.7 °C 34371.3 hPa West 10.3 km/h 23.3 km/h 97 % 7.62 mm 18 W/m2
20:20 -9.4 °C -9.7 °C 34371.3 hPa West 12.9 km/h 20.8 km/h 97 % 7.62 mm 19 W/m2
20:25 -9.4 °C -9.7 °C 34371.3 hPa West 5.1 km/h 20.8 km/h 97 % 7.62 mm 16 W/m2
20:30 -9.4 °C -9.7 °C 34371.3 hPa SW 5.1 km/h 15.6 km/h 97 % 7.62 mm 11 W/m2
20:35 -9.4 °C -9.7 °C 34371.3 hPa WSW 15.6 km/h 28.5 km/h 97 % 7.62 mm 5 W/m2
20:40 -9.4 °C -9.7 °C 34371.3 hPa West 5.1 km/h 28.5 km/h 97 % 7.62 mm 7 W/m2
20:45 -9.4 °C -9.7 °C 34371.3 hPa WSW 2.6 km/h 23.3 km/h 97 % 7.62 mm 7 W/m2
20:50 -9.4 °C -9.7 °C 34371.3 hPa WSW 12.9 km/h 28.5 km/h 97 % 7.62 mm 7 W/m2
20:55 -9.4 °C -9.7 °C 34371.3 hPa WSW 15.6 km/h 28.5 km/h 97 % 7.62 mm 7 W/m2
21:00 -9.4 °C -9.7 °C 34361.1 hPa WSW 15.6 km/h 25.9 km/h 97 % 7.62 mm 12 W/m2
21:05 -9.4 °C -9.7 °C 34371.3 hPa WSW 12.9 km/h 20.8 km/h 97 % 0 mm 5 W/m2
21:10 -9.4 °C -9.7 °C 34371.3 hPa Calm   23.3 km/h 97 % 0 mm 5 W/m2
21:15 -9.4 °C -9.7 °C 34371.3 hPa WSW 5.1 km/h 23.3 km/h 97 % 0 mm 0 W/m2
21:20 -9.4 °C -9.7 °C 34371.3 hPa WSW 2.6 km/h 23.3 km/h 97 % 0 mm 0 W/m2
21:25 -9.4 °C -9.7 °C 34361.1 hPa West 15.6 km/h 18.2 km/h 97 % 0 mm 0 W/m2
21:30 -9.4 °C -9.7 °C 34371.3 hPa SW 12.9 km/h 20.8 km/h 97 % 0 mm 0 W/m2
21:35 -9.4 °C -9.7 °C 34361.1 hPa WSW 7.7 km/h 20.8 km/h 97 % 0 mm 0 W/m2
21:40 -9.4 °C -9.7 °C 34361.1 hPa WSW 7.7 km/h 18.2 km/h 97 % 0 mm 0 W/m2
21:45 -9.4 °C -9.7 °C 34361.1 hPa SW 10.3 km/h 23.3 km/h 97 % 0 mm 0 W/m2
21:50 -9.4 °C -9.7 °C 34361.1 hPa WSW 10.3 km/h 23.3 km/h 97 % 0 mm 0 W/m2
21:55 -9.4 °C -9.7 °C 34361.1 hPa SW 5.1 km/h 15.6 km/h 97 % 7.62 mm 0 W/m2
22:00 -9.4 °C -9.7 °C 34361.1 hPa Calm   20.8 km/h 97 % 7.62 mm 0 W/m2
22:05 -9.4 °C -9.7 °C 34371.3 hPa WSW 15.6 km/h 20.8 km/h 97 % 7.62 mm 0 W/m2
22:10 -9.4 °C -9.7 °C 34371.3 hPa WSW 7.7 km/h 23.3 km/h 97 % 7.62 mm 0 W/m2
22:15 -9.4 °C -9.7 °C 34371.3 hPa SW 18.2 km/h 23.3 km/h 97 % 7.62 mm 0 W/m2
22:20 -9.4 °C -9.7 °C 34371.3 hPa WSW 12.9 km/h 18.2 km/h 97 % 7.62 mm 0 W/m2
22:25 -9.4 °C -9.7 °C 34371.3 hPa SSW 5.1 km/h 18.2 km/h 97 % 7.62 mm 0 W/m2
22:30 -9.4 °C -9.7 °C 34371.3 hPa Calm   20.8 km/h 97 % 7.62 mm 0 W/m2
22:35 -9.4 °C -9.7 °C 34371.3 hPa WSW 12.9 km/h 23.3 km/h 97 % 7.62 mm 0 W/m2
22:40 -9.4 °C -9.7 °C 34371.3 hPa SW 7.7 km/h 23.3 km/h 97 % 7.62 mm 0 W/m2
22:45 -9.4 °C -9.7 °C 34371.3 hPa SW 12.9 km/h 20.8 km/h 97 % 7.62 mm 0 W/m2
22:50 -9.4 °C -9.7 °C 34371.3 hPa WSW 7.7 km/h 25.9 km/h 97 % 7.62 mm 0 W/m2
22:55 -9.4 °C -9.6 °C 34371.3 hPa SW 12.9 km/h 25.9 km/h 98 % 0 mm 0 W/m2
23:00 -9.4 °C -9.6 °C 34371.3 hPa WSW 2.6 km/h 25.9 km/h 98 % 0 mm 0 W/m2
23:05 -9.4 °C -9.6 °C 34371.3 hPa SW 7.7 km/h 23.3 km/h 98 % 0 mm 0 W/m2
23:10 -9.4 °C -9.6 °C 34371.3 hPa WSW 12.9 km/h 20.8 km/h 98 % 7.62 mm 0 W/m2
23:15 -9.4 °C -9.6 °C 34361.1 hPa SW 7.7 km/h 20.8 km/h 98 % 7.62 mm 0 W/m2
23:20 -9.4 °C -9.6 °C 34361.1 hPa SW 2.6 km/h 20.8 km/h 98 % 12.7 mm 0 W/m2
23:25 -9.4 °C -9.6 °C 34371.3 hPa SW 7.7 km/h 20.8 km/h 98 % 12.7 mm 0 W/m2
23:30 -9.4 °C -9.6 °C 34361.1 hPa SW 10.3 km/h 20.8 km/h 98 % 12.7 mm 0 W/m2
23:35 -9.4 °C -9.6 °C 34361.1 hPa SSW 10.3 km/h 20.8 km/h 98 % 12.7 mm 0 W/m2
23:40 -9.4 °C -9.6 °C 34371.3 hPa SSW 5.1 km/h 20.8 km/h 98 % 12.7 mm 0 W/m2
23:45 -9.4 °C -9.6 °C 34361.1 hPa SSW 15.6 km/h 20.8 km/h 98 % 12.7 mm 0 W/m2
23:50 -9.4 °C -9.6 °C 34361.1 hPa SSW 12.9 km/h 25.9 km/h 98 % 12.7 mm 0 W/m2
23:55 -9.4 °C -9.6 °C 34361.1 hPa SW 10.3 km/h 25.9 km/h 98 % 12.7 mm 0 W/m2
Avec l'autorisation de Weather Underground - 1.75 mb